Redwood City, California
Current Conditions -  °F | °C
As of 3:50 AM on Saturday 01 Nov 2014 (Local Time) from KSQL Reporting Station
Clear Clear  
Wind Chill: 54°   Ceiling: Unl
Heat Index: 54°   Visibility: 10mi
Dew Point: 50°   Wind: 0mph
Humidity: 88%   Direction: NA
Pressure: 29.79"   Gusts: NA
Location:  37.48°N, 122.22°W
Report Text: KSQL 011050Z AUTO 00000KT 10SM CLR 12/10 A2979 RMK AO2
Loading
Personal Weather Stations






























Interactive Weather Map
Tropical Storm Tracking
New forecast layout! Learn more

10-Day Weather Forecast

Advertisements
Track Severe Weather on mobile